createdAt,value
2018-03-03T00:00:03.669Z,0.30
2018-03-03T00:02:31.987Z,0.30
2018-03-03T00:05:00.260Z,0.30
2018-03-03T00:07:28.552Z,0.20
2018-03-03T00:09:57.747Z,0.20
2018-03-03T00:12:25.989Z,0.20
2018-03-03T00:14:54.300Z,0.20
2018-03-03T00:17:22.525Z,0.10
2018-03-03T00:19:50.793Z,0.10
2018-03-03T00:22:41.294Z,0.10
2018-03-03T00:25:09.551Z,0.00
2018-03-03T00:27:38.561Z,0.10
2018-03-03T00:30:06.810Z,0.10
2018-03-03T00:32:35.121Z,0.10
2018-03-03T00:35:04.128Z,0.10
2018-03-03T00:37:32.389Z,0.10
2018-03-03T00:40:00.677Z,0.10
2018-03-03T00:42:28.980Z,0.10
2018-03-03T00:44:57.248Z,0.10
2018-03-03T00:47:25.890Z,0.10
2018-03-03T00:49:54.161Z,0.10
2018-03-03T00:52:22.452Z,0.00
2018-03-03T00:54:51.484Z,0.00
2018-03-03T00:57:19.722Z,0.00
2018-03-03T00:59:48.746Z,-0.10
2018-03-03T01:02:16.994Z,-0.10
2018-03-03T01:04:45.257Z,0.00
2018-03-03T01:07:13.525Z,0.00
2018-03-03T01:09:41.856Z,-0.10
2018-03-03T01:12:10.144Z,-0.20
2018-03-03T01:14:38.397Z,-0.20
2018-03-03T01:17:06.664Z,-0.10
2018-03-03T01:19:35.668Z,-0.10
2018-03-03T01:22:03.976Z,-0.20
2018-03-03T01:24:32.262Z,-0.20
2018-03-03T01:27:00.566Z,-0.20
2018-03-03T01:29:28.855Z,-0.10
2018-03-03T01:31:57.904Z,-0.10
2018-03-03T01:34:26.159Z,-0.10
2018-03-03T01:36:54.418Z,-0.20
2018-03-03T01:39:23.438Z,-0.20
2018-03-03T01:41:51.738Z,-0.20
2018-03-03T01:44:20.044Z,-0.30
2018-03-03T01:46:48.283Z,-0.30
2018-03-03T01:49:16.587Z,-0.30
2018-03-03T01:51:44.854Z,-0.30
2018-03-03T01:54:13.109Z,-0.40
2018-03-03T01:56:41.408Z,-0.30
2018-03-03T01:59:09.673Z,-0.30
2018-03-03T02:01:37.967Z,-0.30
2018-03-03T02:04:06.233Z,-0.20
2018-03-03T02:06:34.529Z,-0.20
2018-03-03T02:09:02.843Z,-0.20
2018-03-03T02:11:31.862Z,-0.30
2018-03-03T02:14:00.171Z,-0.30
2018-03-03T02:16:28.431Z,-0.30
2018-03-03T02:18:57.189Z,-0.30
2018-03-03T02:21:25.405Z,-0.40
2018-03-03T02:23:53.676Z,-0.40
2018-03-03T02:26:21.953Z,-0.40
2018-03-03T02:28:50.987Z,-0.50
2018-03-03T02:31:19.277Z,-0.50
2018-03-03T02:33:48.601Z,-0.50
2018-03-03T02:36:16.855Z,-0.50
2018-03-03T02:38:45.870Z,-0.50
2018-03-03T02:41:14.179Z,-0.50
2018-03-03T02:43:42.484Z,-0.50
2018-03-03T02:46:10.740Z,-0.50
2018-03-03T02:48:38.994Z,-0.50
2018-03-03T02:51:07.519Z,-0.60
2018-03-03T02:53:35.761Z,-0.50
2018-03-03T02:56:04.053Z,-0.50
2018-03-03T02:58:32.370Z,-0.50
2018-03-03T03:01:01.432Z,-0.50
2018-03-03T03:03:29.706Z,-0.50
2018-03-03T03:05:57.986Z,-0.50
2018-03-03T03:08:26.309Z,-0.50
2018-03-03T03:10:55.308Z,-0.40
2018-03-03T03:13:23.554Z,-0.40
2018-03-03T03:15:52.634Z,-0.30
2018-03-03T03:18:20.907Z,-0.30
2018-03-03T03:20:49.179Z,-0.30
2018-03-03T03:23:17.429Z,-0.40
2018-03-03T03:25:45.808Z,-0.30
2018-03-03T03:28:14.063Z,-0.30
2018-03-03T03:30:42.334Z,-0.30
2018-03-03T03:33:11.395Z,-0.30
2018-03-03T03:35:39.638Z,-0.30
2018-03-03T03:38:07.956Z,-0.20
2018-03-03T03:40:36.207Z,-0.30
2018-03-03T03:43:04.482Z,-0.30
2018-03-03T03:45:32.788Z,-0.30
2018-03-03T03:48:01.027Z,-0.30
2018-03-03T03:50:29.616Z,-0.30
2018-03-03T03:52:57.874Z,-0.30
2018-03-03T03:55:26.183Z,-0.30
2018-03-03T03:57:54.492Z,-0.30
2018-03-03T04:00:23.525Z,-0.30
2018-03-03T04:02:52.134Z,-0.30
2018-03-03T04:05:20.421Z,-0.40
2018-03-03T04:07:48.720Z,-0.30
2018-03-03T04:10:17.039Z,-0.40
2018-03-03T04:12:45.332Z,-0.30
2018-03-03T04:15:13.625Z,-0.30
2018-03-03T04:17:41.912Z,-0.30
2018-03-03T04:20:10.167Z,-0.30
2018-03-03T04:22:38.421Z,-0.30
2018-03-03T04:25:06.796Z,-0.30
2018-03-03T04:27:35.042Z,-0.30
2018-03-03T04:30:04.851Z,-0.20
2018-03-03T04:32:33.113Z,-0.30
2018-03-03T04:35:01.640Z,-0.20
2018-03-03T04:37:29.922Z,-0.20
2018-03-03T04:39:58.218Z,-0.20
2018-03-03T04:42:26.497Z,-0.30
2018-03-03T04:44:54.777Z,-0.30
2018-03-03T04:47:23.786Z,-0.30
2018-03-03T04:49:52.096Z,-0.20
2018-03-03T04:52:20.430Z,-0.20
2018-03-03T04:54:48.737Z,-0.20
2018-03-03T04:57:16.992Z,-0.30
2018-03-03T05:00:02.969Z,-0.30
2018-03-03T05:02:33.198Z,-0.30
2018-03-03T05:05:07.168Z,-0.30
2018-03-03T05:07:53.903Z,-0.30
2018-03-03T05:10:25.640Z,-0.30
2018-03-03T05:13:02.429Z,-0.30
2018-03-03T05:15:46.382Z,-0.30
2018-03-03T05:18:30.401Z,-0.20
2018-03-03T05:21:16.450Z,-0.20
2018-03-03T05:23:59.585Z,-0.30
2018-03-03T05:26:30.362Z,-0.20
2018-03-03T05:29:04.411Z,-0.30
2018-03-03T05:31:38.406Z,-0.30
2018-03-03T05:34:12.294Z,-0.40
2018-03-03T05:36:41.069Z,-0.40
2018-03-03T05:39:25.097Z,-0.30
2018-03-03T05:41:58.952Z,-0.30
2018-03-03T05:44:34.934Z,-0.30
2018-03-03T05:47:08.860Z,-0.30
2018-03-03T05:49:50.869Z,-0.30
2018-03-03T05:52:24.867Z,-0.20
2018-03-03T05:55:12.958Z,-0.30
2018-03-03T05:57:59.759Z,-0.30
2018-03-03T06:00:44.588Z,-0.20
2018-03-03T06:03:29.710Z,-0.20
2018-03-03T06:06:14.854Z,-0.20
2018-03-03T06:08:43.232Z,-0.20
2018-03-03T06:11:11.516Z,-0.20
2018-03-03T06:13:39.812Z,-0.10
2018-03-03T06:16:08.812Z,-0.10
2018-03-03T06:18:37.405Z,-0.10
2018-03-03T06:21:05.742Z,-0.10
2018-03-03T06:23:33.937Z,-0.10
2018-03-03T06:26:02.978Z,-0.10
2018-03-03T06:28:31.271Z,-0.10
2018-03-03T06:30:59.571Z,0.00
2018-03-03T06:33:27.842Z,0.00
2018-03-03T06:35:56.101Z,-0.10
2018-03-03T06:38:24.365Z,0.00
2018-03-03T06:40:52.608Z,0.00
2018-03-03T06:43:20.907Z,0.10
2018-03-03T06:45:49.159Z,0.00
2018-03-03T06:48:18.178Z,0.00
2018-03-03T06:50:46.426Z,0.10
2018-03-03T06:53:15.513Z,0.10
2018-03-03T06:55:43.800Z,0.10
2018-03-03T06:58:12.802Z,0.20
2018-03-03T07:00:41.164Z,0.10
2018-03-03T07:03:09.419Z,0.20
2018-03-03T07:05:37.715Z,0.20
2018-03-03T07:08:05.997Z,0.20
2018-03-03T07:10:35.070Z,0.20
2018-03-03T07:13:03.321Z,0.20
2018-03-03T07:15:31.601Z,0.30
2018-03-03T07:18:00.656Z,0.40
2018-03-03T07:20:29.652Z,0.30
2018-03-03T07:22:57.953Z,0.30
2018-03-03T07:25:26.204Z,0.40
2018-03-03T07:27:54.526Z,0.40
2018-03-03T07:30:22.805Z,0.50
2018-03-03T07:32:51.085Z,0.50
2018-03-03T07:35:19.329Z,0.60
2018-03-03T07:37:47.619Z,0.50
2018-03-03T07:40:15.913Z,0.60
2018-03-03T07:42:44.148Z,0.70
2018-03-03T07:45:12.458Z,0.70
2018-03-03T07:47:40.710Z,0.70
2018-03-03T07:50:09.012Z,0.80
2018-03-03T07:52:37.304Z,0.90
2018-03-03T07:55:05.583Z,1.00
2018-03-03T07:57:33.851Z,1.10
2018-03-03T08:00:02.125Z,1.10
2018-03-03T08:02:30.382Z,1.30
2018-03-03T08:04:58.673Z,1.40
2018-03-03T08:07:26.933Z,1.50
2018-03-03T08:09:55.180Z,1.50
2018-03-03T08:12:23.470Z,1.50
2018-03-03T08:14:52.526Z,1.60
2018-03-03T08:17:20.772Z,1.50
2018-03-03T08:19:49.041Z,1.60
2018-03-03T08:22:17.286Z,1.60
2018-03-03T08:24:46.360Z,1.70
2018-03-03T08:27:14.654Z,1.70
2018-03-03T08:29:43.719Z,1.90
2018-03-03T08:32:12.496Z,1.80
2018-03-03T08:34:40.777Z,1.90
2018-03-03T08:37:09.076Z,2.00
2018-03-03T08:39:37.361Z,2.00
2018-03-03T08:42:05.611Z,2.10
2018-03-03T08:44:33.912Z,2.10
2018-03-03T08:47:02.196Z,2.10
2018-03-03T08:49:30.452Z,2.10
2018-03-03T08:51:58.712Z,2.20
2018-03-03T08:54:27.020Z,2.20
2018-03-03T08:56:55.260Z,2.30
2018-03-03T08:59:23.506Z,2.40
2018-03-03T09:01:51.791Z,2.40
2018-03-03T09:04:20.055Z,2.50
2018-03-03T09:06:48.346Z,2.50
2018-03-03T09:09:16.676Z,2.60
2018-03-03T09:11:44.915Z,2.60
2018-03-03T09:14:13.212Z,2.50
2018-03-03T09:16:42.346Z,2.50
2018-03-03T09:19:11.414Z,2.50
2018-03-03T09:21:39.689Z,2.50
2018-03-03T09:24:07.933Z,2.60
2018-03-03T09:26:36.254Z,2.60
2018-03-03T09:29:04.532Z,2.60
2018-03-03T09:31:32.770Z,2.70
2018-03-03T09:34:01.070Z,2.70
2018-03-03T09:36:29.378Z,2.80
2018-03-03T09:38:57.671Z,2.80
2018-03-03T09:41:26.679Z,3.00
2018-03-03T09:43:54.939Z,2.90
2018-03-03T09:46:23.953Z,3.10
2018-03-03T09:48:52.251Z,3.00
2018-03-03T09:51:20.532Z,3.10
2018-03-03T09:53:48.781Z,3.20
2018-03-03T09:56:17.036Z,3.30
2018-03-03T09:58:46.103Z,3.40
2018-03-03T10:01:14.398Z,3.30
2018-03-03T10:03:42.680Z,3.40
2018-03-03T10:06:11.768Z,3.50
2018-03-03T10:08:40.049Z,3.40
2018-03-03T10:11:08.363Z,3.50
2018-03-03T10:13:36.630Z,3.50
2018-03-03T10:16:04.889Z,3.60
2018-03-03T10:18:33.942Z,3.60
2018-03-03T10:21:02.192Z,3.60
2018-03-03T10:23:34.700Z,3.70
2018-03-03T10:26:08.962Z,3.70
2018-03-03T10:28:38.093Z,3.80
2018-03-03T10:31:06.345Z,3.80
2018-03-03T10:33:34.639Z,3.80
2018-03-03T10:36:02.943Z,3.80
2018-03-03T10:38:31.184Z,3.80
2018-03-03T10:40:59.452Z,3.80
2018-03-03T10:43:28.461Z,3.90
2018-03-03T10:45:56.735Z,3.90
2018-03-03T10:48:24.984Z,4.00
2018-03-03T10:50:54.072Z,4.10
2018-03-03T10:53:22.354Z,4.10
2018-03-03T10:55:50.668Z,4.10
2018-03-03T10:58:18.992Z,4.20
2018-03-03T11:00:50.283Z,4.20
2018-03-03T11:03:18.555Z,4.40
2018-03-03T11:05:47.571Z,4.50
2018-03-03T11:08:15.833Z,4.50
2018-03-03T11:10:44.088Z,4.50
2018-03-03T11:13:13.099Z,4.60
2018-03-03T11:15:41.365Z,4.50
2018-03-03T11:18:10.398Z,4.70
2018-03-03T11:20:38.667Z,4.70
2018-03-03T11:23:06.946Z,4.70
2018-03-03T11:25:35.185Z,4.80
2018-03-03T11:28:04.211Z,5.00
2018-03-03T11:30:32.591Z,4.90
2018-03-03T11:33:00.886Z,5.10
2018-03-03T11:35:29.157Z,5.20
2018-03-03T11:37:57.444Z,5.20
2018-03-03T11:40:33.132Z,5.30
2018-03-03T11:42:54.043Z,5.40
2018-03-03T11:45:23.088Z,5.50
2018-03-03T11:47:51.354Z,5.50
2018-03-03T11:50:19.604Z,5.50
2018-03-03T11:52:48.694Z,5.50
2018-03-03T11:55:17.710Z,5.40
2018-03-03T11:57:45.993Z,5.40
2018-03-03T12:00:14.241Z,5.50
2018-03-03T12:02:43.262Z,5.70
2018-03-03T12:05:11.535Z,5.70
2018-03-03T12:07:39.830Z,5.70
2018-03-03T12:10:08.168Z,5.70
2018-03-03T12:12:37.212Z,5.60
2018-03-03T12:15:05.505Z,5.50
2018-03-03T12:17:33.787Z,5.60
2018-03-03T12:20:02.066Z,5.60
2018-03-03T12:22:30.330Z,5.50
2018-03-03T12:24:58.575Z,5.60
2018-03-03T12:27:26.874Z,5.60
2018-03-03T12:29:55.157Z,5.60
2018-03-03T12:32:23.435Z,5.70
2018-03-03T12:34:52.470Z,5.70
2018-03-03T12:37:21.505Z,5.70
2018-03-03T12:39:49.816Z,5.70
2018-03-03T12:42:18.094Z,5.70
2018-03-03T12:44:46.359Z,5.60
2018-03-03T12:47:14.693Z,5.50
2018-03-03T12:49:43.817Z,5.50
2018-03-03T12:52:12.061Z,5.50
2018-03-03T12:54:41.111Z,5.50
2018-03-03T12:57:09.393Z,5.50
2018-03-03T12:59:37.643Z,5.50
2018-03-03T13:02:05.937Z,5.50
2018-03-03T13:04:34.184Z,5.50
2018-03-03T13:07:02.498Z,5.60
2018-03-03T13:09:30.744Z,5.60
2018-03-03T13:11:59.021Z,5.60
2018-03-03T13:14:27.316Z,5.70
2018-03-03T13:16:56.365Z,5.80
2018-03-03T13:19:25.430Z,5.90
2018-03-03T13:21:53.715Z,5.80
2018-03-03T13:24:22.002Z,5.90
2018-03-03T13:26:51.053Z,5.90
2018-03-03T13:29:19.331Z,5.90
2018-03-03T13:31:47.578Z,6.00
2018-03-03T13:34:15.881Z,6.00
2018-03-03T13:36:44.921Z,6.00
2018-03-03T13:39:13.227Z,6.10
2018-03-03T13:41:41.539Z,6.10
2018-03-03T13:44:09.836Z,6.20
2018-03-03T13:46:38.136Z,6.20
2018-03-03T13:49:06.439Z,6.30
2018-03-03T13:51:35.616Z,6.30
2018-03-03T13:54:04.743Z,6.50
2018-03-03T13:56:33.002Z,6.40
2018-03-03T13:59:02.026Z,6.60
2018-03-03T14:01:30.296Z,6.60
2018-03-03T14:03:58.604Z,6.70
2018-03-03T14:06:26.892Z,6.70
2018-03-03T14:08:55.179Z,6.80
2018-03-03T14:11:23.441Z,6.80
2018-03-03T14:13:51.731Z,7.00
2018-03-03T14:16:19.993Z,7.10
2018-03-03T14:18:48.232Z,7.20
2018-03-03T14:21:16.533Z,7.20
2018-03-03T14:23:44.773Z,7.30
2018-03-03T14:26:13.058Z,7.30
2018-03-03T14:28:41.342Z,7.30
2018-03-03T14:31:10.384Z,7.40
2018-03-03T14:33:38.680Z,7.40
2018-03-03T14:36:07.700Z,7.60
2018-03-03T14:38:36.096Z,7.60
2018-03-03T14:41:04.384Z,7.60
2018-03-03T14:43:32.630Z,7.70
2018-03-03T14:46:00.882Z,7.80
2018-03-03T14:48:29.938Z,7.90
2018-03-03T14:50:58.257Z,7.90
2018-03-03T14:53:27.296Z,7.90
2018-03-03T14:55:55.618Z,7.90
2018-03-03T14:58:23.892Z,7.90
2018-03-03T15:00:52.137Z,8.00
2018-03-03T15:03:20.384Z,7.90
2018-03-03T15:05:48.636Z,8.00
2018-03-03T15:08:17.682Z,8.00
2018-03-03T15:10:45.914Z,8.00
2018-03-03T15:13:14.967Z,8.00
2018-03-03T15:15:43.210Z,7.90
2018-03-03T15:18:11.450Z,7.80
2018-03-03T15:20:40.523Z,7.80
2018-03-03T15:23:08.756Z,7.70
2018-03-03T15:25:37.038Z,7.70
2018-03-03T15:28:05.281Z,7.70
2018-03-03T15:30:34.311Z,7.60
2018-03-03T15:33:02.612Z,7.50
2018-03-03T15:35:31.571Z,7.50
2018-03-03T15:37:59.829Z,7.50
2018-03-03T15:40:28.841Z,7.60
2018-03-03T15:42:57.169Z,7.50
2018-03-03T15:45:25.449Z,7.50
2018-03-03T15:47:53.680Z,7.60
2018-03-03T15:50:21.989Z,7.40
2018-03-03T15:52:50.266Z,7.40
2018-03-03T15:55:18.572Z,7.30
2018-03-03T15:57:46.810Z,7.20
2018-03-03T16:00:15.083Z,7.20
2018-03-03T16:02:43.329Z,7.00
2018-03-03T16:05:11.617Z,7.00
2018-03-03T16:07:39.878Z,7.00
2018-03-03T16:10:08.869Z,6.90
2018-03-03T16:12:37.932Z,6.80
2018-03-03T16:15:06.168Z,6.80
2018-03-03T16:17:34.501Z,6.70
2018-03-03T16:20:02.744Z,6.60
2018-03-03T16:22:31.025Z,6.60
2018-03-03T16:24:59.328Z,6.50
2018-03-03T16:27:27.590Z,6.40
2018-03-03T16:29:55.886Z,6.30
2018-03-03T16:32:24.148Z,6.20
2018-03-03T16:34:52.447Z,6.10
2018-03-03T16:37:20.718Z,6.00
2018-03-03T16:39:49.012Z,5.80
2018-03-03T16:42:18.088Z,5.60
2018-03-03T16:44:46.374Z,5.60
2018-03-03T16:47:14.659Z,5.50
2018-03-03T16:49:43.673Z,5.20
2018-03-03T16:52:11.928Z,5.20
2018-03-03T16:54:41.140Z,4.90
2018-03-03T16:57:10.150Z,4.90
2018-03-03T16:59:38.445Z,4.80
2018-03-03T17:02:06.685Z,4.80
2018-03-03T17:04:35.784Z,4.60
2018-03-03T17:07:04.044Z,4.50
2018-03-03T17:09:33.092Z,4.30
2018-03-03T17:12:01.396Z,4.30
2018-03-03T17:14:29.684Z,4.20
2018-03-03T17:16:58.041Z,4.10
2018-03-03T17:19:26.331Z,4.00
2018-03-03T17:21:54.863Z,3.90
2018-03-03T17:24:23.986Z,3.80
2018-03-03T17:26:52.232Z,3.70
2018-03-03T17:29:20.558Z,3.60
2018-03-03T17:31:48.846Z,3.60
2018-03-03T17:34:17.081Z,3.50
2018-03-03T17:36:45.372Z,3.40
2018-03-03T17:39:13.605Z,3.40
2018-03-03T17:41:41.942Z,3.30
2018-03-03T17:44:10.226Z,3.20
2018-03-03T17:46:38.507Z,3.20
2018-03-03T17:49:06.776Z,3.10
2018-03-03T17:51:35.052Z,3.00
2018-03-03T17:54:03.312Z,2.90
2018-03-03T17:56:31.545Z,2.80
2018-03-03T17:59:00.584Z,2.70
2018-03-03T18:01:28.829Z,2.70
2018-03-03T18:03:57.076Z,2.70
2018-03-03T18:06:26.110Z,2.60
2018-03-03T18:08:54.397Z,2.50
2018-03-03T18:11:22.652Z,2.50
2018-03-03T18:13:55.422Z,2.40
2018-03-03T18:16:23.738Z,2.40
2018-03-03T18:18:52.048Z,2.30
2018-03-03T18:21:20.330Z,2.30
2018-03-03T18:23:48.636Z,2.20
2018-03-03T18:26:17.685Z,2.10
2018-03-03T18:28:45.944Z,2.10
2018-03-03T18:31:14.174Z,2.10
2018-03-03T18:33:43.249Z,2.00
2018-03-03T18:36:11.544Z,2.00
2018-03-03T18:38:39.785Z,2.00
2018-03-03T18:41:08.027Z,1.90
2018-03-03T18:43:36.279Z,1.90
2018-03-03T18:46:05.306Z,1.80
2018-03-03T18:48:33.546Z,1.80
2018-03-03T18:51:02.593Z,1.70
2018-03-03T18:53:30.847Z,1.70
2018-03-03T18:55:59.090Z,1.70
2018-03-03T18:58:27.353Z,1.70
2018-03-03T19:00:55.656Z,1.60
2018-03-03T19:03:24.680Z,1.50
2018-03-03T19:05:52.972Z,1.50
2018-03-03T19:08:21.243Z,1.50
2018-03-03T19:10:49.654Z,1.50
2018-03-03T19:13:17.882Z,1.40
2018-03-03T19:15:46.175Z,1.40
2018-03-03T19:18:14.449Z,1.30
2018-03-03T19:20:42.726Z,1.30
2018-03-03T19:23:10.956Z,1.20
2018-03-03T19:25:39.314Z,1.10
2018-03-03T19:28:07.588Z,1.10
2018-03-03T19:30:35.825Z,1.10
2018-03-03T19:33:04.129Z,1.00
2018-03-03T19:35:32.402Z,1.00
2018-03-03T19:38:00.668Z,0.90
2018-03-03T19:40:28.958Z,0.90
2018-03-03T19:42:57.211Z,0.90
2018-03-03T19:45:25.499Z,0.90
2018-03-03T19:47:53.834Z,0.80
2018-03-03T19:50:22.130Z,0.80
2018-03-03T19:52:51.178Z,0.80
2018-03-03T19:55:19.480Z,0.80
2018-03-03T19:57:47.770Z,0.80
2018-03-03T20:00:16.836Z,0.70
2018-03-03T20:02:45.104Z,0.70
2018-03-03T20:05:13.353Z,0.60
2018-03-03T20:07:41.621Z,0.60
2018-03-03T20:10:09.938Z,0.60
2018-03-03T20:12:38.234Z,0.60
2018-03-03T20:15:06.461Z,0.50
2018-03-03T20:17:34.781Z,0.50
2018-03-03T20:20:03.055Z,0.40
2018-03-03T20:22:31.314Z,0.40
2018-03-03T20:24:59.564Z,0.40
2018-03-03T20:27:27.887Z,0.40
2018-03-03T20:29:56.153Z,0.40
2018-03-03T20:32:24.472Z,0.30
2018-03-03T20:34:53.519Z,0.30
2018-03-03T20:37:21.778Z,0.30
2018-03-03T20:39:50.028Z,0.30
2018-03-03T20:42:18.318Z,0.30
2018-03-03T20:44:46.616Z,0.30
2018-03-03T20:47:14.902Z,0.30
2018-03-03T20:49:43.216Z,0.20
2018-03-03T20:52:11.505Z,0.30
2018-03-03T20:54:40.559Z,0.30
2018-03-03T20:57:08.871Z,0.30
2018-03-03T20:59:37.909Z,0.30
2018-03-03T21:02:06.196Z,0.30
2018-03-03T21:04:34.497Z,0.30
2018-03-03T21:07:02.791Z,0.30
2018-03-03T21:09:31.866Z,0.30
2018-03-03T21:12:03.467Z,0.30
2018-03-03T21:14:31.736Z,0.30
2018-03-03T21:17:00.779Z,0.40
2018-03-03T21:19:29.065Z,0.30
2018-03-03T21:21:57.369Z,0.40
2018-03-03T21:24:25.642Z,0.40
2018-03-03T21:26:53.912Z,0.50
2018-03-03T21:29:22.225Z,0.50
2018-03-03T21:31:51.240Z,0.60
2018-03-03T21:34:20.581Z,0.60
2018-03-03T21:36:48.846Z,0.70
2018-03-03T21:39:17.109Z,0.70
2018-03-03T21:41:45.431Z,0.70
2018-03-03T21:44:13.678Z,0.70
2018-03-03T21:46:41.971Z,0.80
2018-03-03T21:49:10.239Z,0.80
2018-03-03T21:51:38.513Z,0.80
2018-03-03T21:54:06.802Z,0.80
2018-03-03T21:56:35.075Z,0.90
2018-03-03T21:59:03.391Z,0.80
2018-03-03T22:01:32.449Z,0.90
2018-03-03T22:04:00.744Z,0.90
2018-03-03T22:06:28.992Z,1.00
2018-03-03T22:08:57.234Z,1.00
2018-03-03T22:11:25.519Z,1.00
2018-03-03T22:13:53.819Z,1.00
2018-03-03T22:16:22.059Z,1.00
2018-03-03T22:18:50.341Z,1.10
2018-03-03T22:21:18.621Z,1.10
2018-03-03T22:23:46.865Z,1.10
2018-03-03T22:26:15.884Z,1.10
2018-03-03T22:28:44.168Z,1.00
2018-03-03T22:31:12.474Z,1.10
2018-03-03T22:33:40.755Z,1.10
2018-03-03T22:36:09.002Z,1.10
2018-03-03T22:38:38.007Z,1.00
2018-03-03T22:41:06.288Z,1.00
2018-03-03T22:43:34.556Z,1.10
2018-03-03T22:46:02.814Z,1.10
2018-03-03T22:48:31.106Z,1.10
2018-03-03T22:50:59.393Z,1.20
2018-03-03T22:53:27.653Z,1.20
2018-03-03T22:55:55.929Z,1.20
2018-03-03T22:58:24.212Z,1.20
2018-03-03T23:00:52.455Z,1.30
2018-03-03T23:03:22.387Z,1.30
2018-03-03T23:05:52.234Z,1.30
2018-03-03T23:08:21.250Z,1.30
2018-03-03T23:10:49.542Z,1.30
2018-03-03T23:13:17.786Z,1.40
2018-03-03T23:15:46.120Z,1.30
2018-03-03T23:18:15.144Z,1.40
2018-03-03T23:20:43.428Z,1.40
2018-03-03T23:23:11.681Z,1.40
2018-03-03T23:25:39.917Z,1.40
2018-03-03T23:28:08.211Z,1.50
2018-03-03T23:30:36.496Z,1.60
2018-03-03T23:33:05.525Z,1.50
2018-03-03T23:35:33.777Z,1.50
2018-03-03T23:38:02.047Z,1.50
2018-03-03T23:40:31.089Z,1.50
2018-03-03T23:42:59.317Z,1.50
2018-03-03T23:45:28.389Z,1.60
2018-03-03T23:47:56.673Z,1.60
2018-03-03T23:50:24.927Z,1.60
2018-03-03T23:52:53.175Z,1.60
2018-03-03T23:55:21.468Z,1.60
2018-03-03T23:57:49.748Z,1.60
